ADDS METAR Data INFO
IDs: Format: Raw Decoded Include TAF

Data at: 1542 UTC 12 Dec 2017

K1F0 121535Z AUTO 04007KT 010V070 10SM CLR 06/M02 A3044 RMK AO2
K1F0 121515Z AUTO 05004KT 10SM CLR 06/M02 A3043 RMK AO2
K1F0 121455Z AUTO 01004KT 10SM CLR 05/M02 A3043 RMK AO2
K1F0 121435Z AUTO 02003KT 10SM 04/M02 A3042 RMK AO2
K1F0 121415Z AUTO 00000KT 10SM 03/M02 A3042 RMK AO2
K1F0 121355Z AUTO 00000KT 10SM CLR 02/M02 A3042 RMK AO2
K1F0 121335Z AUTO 35003KT 10SM CLR 02/M02 A3041 RMK AO2
K1F0 121315Z AUTO 00000KT 10SM CLR 02/M02 A3041 RMK AO2
K1F0 121255Z AUTO 00000KT 10SM CLR 04/M02 A3040 RMK AO2
K1F0 121235Z AUTO 02004KT 10SM CLR 05/M02 A3039 RMK AO2
K1F0 121215Z AUTO 04007KT 10SM CLR 05/M02 A3039 RMK AO2
K1F0 121155Z AUTO 04007KT 10SM CLR 05/M02 A3039 RMK AO2
K1F0 121135Z AUTO 03004KT 10SM CLR 05/M02 A3039 RMK AO2
K1F0 121115Z AUTO 00000KT 10SM CLR 05/M02 A3038 RMK AO2
K1F0 121055Z AUTO 04007KT 10SM CLR 05/M02 A3037 RMK AO2
K1F0 121035Z AUTO 02003KT 10SM CLR 06/M02 A3037 RMK AO2
K1F0 121015Z AUTO 03004KT 10SM CLR 06/M02 A3037 RMK AO2
K1F0 120955Z AUTO 03005KT 10SM CLR 07/M02 A3037 RMK AO2
K1F0 120935Z AUTO 03005KT 10SM CLR 07/M03 A3036 RMK AO2
K1F0 120915Z AUTO 04006G14KT 10SM CLR 07/M03 A3036 RMK AO2
K1F0 120855Z AUTO 04005KT 10SM CLR 07/M03 A3035 RMK AO2
K1F0 120835Z AUTO 03009G16KT 10SM CLR 08/M04 A3034 RMK AO2
K1F0 120815Z AUTO 03004KT 10SM CLR 08/M05 A3034 RMK AO2
K1F0 120755Z AUTO 02005KT 10SM CLR 08/M05 A3033 RMK AO2
K1F0 120735Z AUTO 03004KT 10SM CLR 09/M06 A3032 RMK AO2
K1F0 120715Z AUTO 02004KT 10SM CLR 09/M06 A3032 RMK AO2
K1F0 120655Z AUTO 02005KT 10SM CLR 10/M06 A3032 RMK AO2
K1F0 120635Z AUTO 04005KT 10SM CLR 10/M07 A3031 RMK AO2
K1F0 120615Z AUTO 04005KT 10SM CLR 11/M08 A3030 RMK AO2
K1F0 120555Z AUTO 04005KT 10SM CLR 11/M08 A3030 RMK AO2
K1F0 120535Z AUTO 02005KT 10SM CLR 11/M08 A3029 RMK AO2
K1F0 120515Z AUTO 03005KT 10SM CLR 12/M08 A3027 RMK AO2
K1F0 120455Z AUTO 02004KT 10SM CLR 12/M08 A3026 RMK AO2
K1F0 120435Z AUTO 02005KT 10SM CLR 12/M08 A3025 RMK AO2
K1F0 120415Z AUTO 01005KT 10SM CLR 12/M08 A3023 RMK AO2
K1F0 120355Z AUTO 36003KT 10SM CLR 11/M08 A3022 RMK AO2
K1F0 120335Z AUTO 00000KT 10SM CLR 10/M08 A3021 RMK AO2
K1F0 120315Z AUTO 00000KT 10SM CLR 10/M08 A3020 RMK AO2
K1F0 120255Z AUTO 00000KT 10SM CLR 11/M09 A3019 RMK AO2
K1F0 120235Z AUTO 00000KT 10SM CLR 12/M09 A3019 RMK AO2
K1F0 120215Z AUTO 36003KT 10SM CLR 12/M09 A3019 RMK AO2
K1F0 120155Z AUTO 01003KT 10SM CLR 13/M10 A3019 RMK AO2
K1F0 120135Z AUTO 36003KT 10SM CLR 13/M10 A3018 RMK AO2
K1F0 120115Z AUTO 00000KT 10SM CLR 14/M10 A3017 RMK AO2
K1F0 120055Z AUTO 01003KT 10SM CLR 15/M10 A3015 RMK AO2
K1F0 120035Z AUTO 36003KT 10SM CLR 16/M10 A3014 RMK AO2
K1F0 120015Z AUTO 33004KT 10SM CLR 16/M08 A3013 RMK AO2
K1F0 112355Z AUTO 00000KT 10SM CLR 16/M08 A3012 RMK AO2
K1F0 112335Z AUTO 00000KT 10SM CLR 17/M09 A3011 RMK AO2
K1F0 112315Z AUTO 32004KT 10SM CLR 19/M10 A3011 RMK AO2
K1F0 112255Z AUTO 32003KT 10SM CLR 20/M10 A3010 RMK AO2
K1F0 112235Z AUTO 30006KT 10SM CLR 21/M10 A3009 RMK AO2
K1F0 112215Z AUTO 30006KT 10SM CLR 21/M10 A3009 RMK AO2
K1F0 112155Z AUTO 31006KT 10SM CLR 22/M10 A3009 RMK AO2
K1F0 112135Z AUTO 31007KT 10SM CLR 22/M10 A3009 RMK AO2
K1F0 112115Z AUTO 30007KT 10SM CLR 22/M10 A3009 RMK AO2
K1F0 112055Z AUTO 33005KT 10SM CLR 22/M10 A3009 RMK AO2
K1F0 112035Z AUTO 31005KT 10SM CLR 21/M10 A3009 RMK AO2
K1F0 112015Z AUTO 31008KT 280V350 10SM CLR 21/M10 A3009 RMK AO2
K1F0 111955Z AUTO 31006KT 10SM CLR 21/M11 A3010 RMK AO2
K1F0 111935Z AUTO 33005KT 10SM CLR 21/M11 A3010 RMK AO2
K1F0 111915Z AUTO 31006KT 10SM CLR 20/M10 A3011 RMK AO2
K1F0 111855Z AUTO 29008KT 10SM CLR 20/M10 A3012 RMK AO2
K1F0 111835Z AUTO 33004KT 10SM CLR 18/M10 A3013 RMK AO2
K1F0 111815Z AUTO 29007KT 10SM CLR 17/M10 A3013 RMK AO2
K1F0 111755Z AUTO 31005KT 10SM CLR 17/M10 A3016 RMK AO2
K1F0 111735Z AUTO 29008KT 10SM CLR 16/M10 A3017 RMK AO2
K1F0 111715Z AUTO 29006KT 10SM CLR 15/M10 A3019 RMK AO2
K1F0 111655Z AUTO 30004KT 10SM CLR 15/M10 A3019 RMK AO2
K1F0 111635Z AUTO 28005KT 10SM CLR 13/M10 A3019 RMK AO2
K1F0 111615Z AUTO 29005KT 10SM CLR 12/M09 A3020 RMK AO2
K1F0 111555Z AUTO 31004KT 10SM CLR 11/M09 A3022 RMK AO2
K1F0 111535Z AUTO 30004KT 10SM CLR 10/M08 A3021 RMK AO2
K1F0 111515Z AUTO 29005KT 10SM CLR 08/M08 A3021 RMK AO2
K1F0 111455Z AUTO 29005KT 10SM CLR 08/M08 A3021 RMK AO2
K1F0 111435Z AUTO 29004KT 10SM CLR 07/M08 A3021 RMK AO2
K1F0 111415Z AUTO 31004KT 10SM CLR 06/M08 A3022 RMK AO2
K1F0 111355Z AUTO 31004KT 10SM CLR 05/M08 A3022 RMK AO2
K1F0 111335Z AUTO 30004KT 10SM CLR 05/M08 A3022 RMK AO2
K1F0 111315Z AUTO 30005KT 10SM CLR 03/M07 A3023 RMK AO2
K1F0 111255Z AUTO 00000KT 10SM CLR 00/M07 A3023 RMK AO2
K1F0 111235Z AUTO 00000KT 10SM CLR 00/M07 A3022 RMK AO2
K1F0 111215Z AUTO 00000KT 10SM CLR 00/M07 A3022 RMK AO2
K1F0 111155Z AUTO 00000KT 10SM CLR 00/M07 A3022 RMK AO2
K1F0 111135Z AUTO 00000KT 10SM CLR 00/M07 A3022 RMK AO2
K1F0 111115Z AUTO 00000KT 10SM CLR 00/M07 A3022 RMK AO2
K1F0 111055Z AUTO 00000KT 10SM CLR 00/M06 A3022 RMK AO2
K1F0 111035Z AUTO 00000KT 10SM CLR 00/M08 A3023 RMK AO2
K1F0 111015Z AUTO 00000KT 10SM CLR 00/M07 A3024 RMK AO2
K1F0 110955Z AUTO 00000KT 10SM CLR 01/M07 A3025 RMK AO2
K1F0 110935Z AUTO 00000KT 10SM CLR 01/M07 A3025 RMK AO2
K1F0 110915Z AUTO 00000KT 10SM CLR 00/M07 A3025 RMK AO2
K1F0 110855Z AUTO 00000KT 10SM CLR 01/M07 A3026 RMK AO2
K1F0 110835Z AUTO 00000KT 10SM CLR 01/M07 A3026 RMK AO2
K1F0 110815Z AUTO 00000KT 10SM CLR 03/M08 A3026 RMK AO2
K1F0 110755Z AUTO 00000KT 10SM CLR 02/M07 A3026 RMK AO2
K1F0 110735Z AUTO 00000KT 10SM CLR 03/M07 A3025 RMK AO2
K1F0 110715Z AUTO 00000KT 10SM CLR 03/M08 A3025 RMK AO2
K1F0 110655Z AUTO 00000KT 10SM CLR 04/M07 A3026 RMK AO2
K1F0 110635Z AUTO 00000KT 10SM CLR 05/M08 A3026 RMK AO2
K1F0 110615Z AUTO 34003KT 10SM CLR 08/M08 A3026 RMK AO2
K1F0 110555Z AUTO 31003KT 10SM CLR 05/M08 A3027 RMK AO2
K1F0 110535Z AUTO 00000KT 10SM CLR 06/M08 A3027 RMK AO2
K1F0 110515Z AUTO 00000KT 10SM CLR 06/M08 A3027 RMK AO2
K1F0 110455Z AUTO 00000KT 10SM CLR 08/M09 A3027 RMK AO2
K1F0 110435Z AUTO 34003KT 10SM CLR 09/M09 A3027 RMK AO2
K1F0 110415Z AUTO 00000KT 10SM CLR 10/M09 A3027 RMK AO2
K1F0 110355Z AUTO 31003KT 10SM CLR 10/M09 A3028 RMK AO2